sensor_id;sensor_type;location;lat;lon;timestamp;P1;durP1;ratioP1;P2;durP2;ratioP2
22439;SDS011;11387;51.612;7.210;2023-01-10T00:00:36;29.52;;;8.55;;
22439;SDS011;11387;51.612;7.210;2023-01-10T00:03:05;25.83;;;8.30;;
22439;SDS011;11387;51.612;7.210;2023-01-10T00:05:35;18.02;;;8.68;;
22439;SDS011;11387;51.612;7.210;2023-01-10T00:08:07;20.98;;;8.45;;
22439;SDS011;11387;51.612;7.210;2023-01-10T00:10:36;28.73;;;10.45;;
22439;SDS011;11387;51.612;7.210;2023-01-10T00:13:04;25.50;;;11.15;;
22439;SDS011;11387;51.612;7.210;2023-01-10T00:15:50;23.55;;;10.13;;
22439;SDS011;11387;51.612;7.210;2023-01-10T00:18:19;30.85;;;9.10;;
22439;SDS011;11387;51.612;7.210;2023-01-10T00:20:47;20.83;;;9.70;;
22439;SDS011;11387;51.612;7.210;2023-01-10T00:23:17;28.23;;;10.65;;
22439;SDS011;11387;51.612;7.210;2023-01-10T00:25:50;26.50;;;9.05;;
22439;SDS011;11387;51.612;7.210;2023-01-10T00:28:18;35.75;;;9.40;;
22439;SDS011;11387;51.612;7.210;2023-01-10T00:30:47;23.90;;;9.30;;
22439;SDS011;11387;51.612;7.210;2023-01-10T00:33:23;24.55;;;10.20;;
22439;SDS011;11387;51.612;7.210;2023-01-10T00:35:52;32.80;;;10.38;;
22439;SDS011;11387;51.612;7.210;2023-01-10T00:38:22;25.42;;;10.07;;
22439;SDS011;11387;51.612;7.210;2023-01-10T00:40:50;24.48;;;10.52;;
22439;SDS011;11387;51.612;7.210;2023-01-10T00:43:19;32.45;;;10.95;;
22439;SDS011;11387;51.612;7.210;2023-01-10T00:46:06;39.58;;;11.40;;
22439;SDS011;11387;51.612;7.210;2023-01-10T00:48:34;32.47;;;10.82;;
22439;SDS011;11387;51.612;7.210;2023-01-10T00:51:03;25.15;;;9.77;;
22439;SDS011;11387;51.612;7.210;2023-01-10T00:53:33;37.13;;;12.35;;
22439;SDS011;11387;51.612;7.210;2023-01-10T00:56:02;28.20;;;9.73;;
22439;SDS011;11387;51.612;7.210;2023-01-10T00:58:30;35.45;;;11.15;;
22439;SDS011;11387;51.612;7.210;2023-01-10T01:01:00;27.67;;;10.32;;
22439;SDS011;11387;51.612;7.210;2023-01-10T01:03:28;30.75;;;10.80;;
22439;SDS011;11387;51.612;7.210;2023-01-10T01:05:56;28.55;;;10.18;;
22439;SDS011;11387;51.612;7.210;2023-01-10T01:08:30;30.65;;;9.98;;
22439;SDS011;11387;51.612;7.210;2023-01-10T01:11:01;31.48;;;10.35;;
22439;SDS011;11387;51.612;7.210;2023-01-10T01:13:29;35.33;;;10.27;;
22439;SDS011;11387;51.612;7.210;2023-01-10T01:15:58;23.17;;;10.23;;
22439;SDS011;11387;51.612;7.210;2023-01-10T01:18:27;17.73;;;8.35;;
22439;SDS011;11387;51.612;7.210;2023-01-10T01:20:56;29.00;;;9.85;;
22439;SDS011;11387;51.612;7.210;2023-01-10T01:23:26;21.88;;;9.70;;
22439;SDS011;11387;51.612;7.210;2023-01-10T01:25:55;24.10;;;8.48;;
22439;SDS011;11387;51.612;7.210;2023-01-10T01:28:26;26.23;;;11.65;;
22439;SDS011;11387;51.612;7.210;2023-01-10T01:30:54;33.03;;;12.02;;
22439;SDS011;11387;51.612;7.210;2023-01-10T01:33:23;33.13;;;9.65;;
22439;SDS011;11387;51.612;7.210;2023-01-10T01:35:52;26.88;;;9.50;;
22439;SDS011;11387;51.612;7.210;2023-01-10T01:38:20;33.85;;;9.15;;
22439;SDS011;11387;51.612;7.210;2023-01-10T01:40:48;25.30;;;8.80;;
22439;SDS011;11387;51.612;7.210;2023-01-10T01:43:21;23.08;;;8.63;;
22439;SDS011;11387;51.612;7.210;2023-01-10T01:45:53;35.72;;;8.80;;
22439;SDS011;11387;51.612;7.210;2023-01-10T01:48:30;31.10;;;9.73;;
22439;SDS011;11387;51.612;7.210;2023-01-10T01:51:05;28.10;;;8.10;;
22439;SDS011;11387;51.612;7.210;2023-01-10T01:53:38;32.20;;;7.30;;
22439;SDS011;11387;51.612;7.210;2023-01-10T01:56:12;26.83;;;7.50;;
22439;SDS011;11387;51.612;7.210;2023-01-10T01:58:46;23.10;;;5.88;;
22439;SDS011;11387;51.612;7.210;2023-01-10T02:04:26;20.08;;;5.55;;
22439;SDS011;11387;51.612;7.210;2023-01-10T02:06:58;21.35;;;6.50;;
22439;SDS011;11387;51.612;7.210;2023-01-10T02:09:28;26.50;;;6.57;;
22439;SDS011;11387;51.612;7.210;2023-01-10T02:12:00;16.75;;;6.45;;
22439;SDS011;11387;51.612;7.210;2023-01-10T02:14:29;34.85;;;6.97;;
22439;SDS011;11387;51.612;7.210;2023-01-10T02:16:58;23.88;;;6.03;;
22439;SDS011;11387;51.612;7.210;2023-01-10T02:19:36;25.70;;;6.72;;
22439;SDS011;11387;51.612;7.210;2023-01-10T02:28:20;19.48;;;5.53;;
22439;SDS011;11387;51.612;7.210;2023-01-10T02:31:14;26.50;;;6.97;;
22439;SDS011;11387;51.612;7.210;2023-01-10T02:33:56;22.42;;;4.97;;
22439;SDS011;11387;51.612;7.210;2023-01-10T02:36:34;26.60;;;5.00;;
22439;SDS011;11387;51.612;7.210;2023-01-10T02:39:14;24.40;;;4.50;;
22439;SDS011;11387;51.612;7.210;2023-01-10T02:41:47;16.15;;;5.20;;
22439;SDS011;11387;51.612;7.210;2023-01-10T02:44:23;24.25;;;4.50;;
22439;SDS011;11387;51.612;7.210;2023-01-10T02:47:00;20.20;;;4.35;;
22439;SDS011;11387;51.612;7.210;2023-01-10T02:49:40;21.48;;;4.80;;
22439;SDS011;11387;51.612;7.210;2023-01-10T02:52:10;23.00;;;4.90;;
22439;SDS011;11387;51.612;7.210;2023-01-10T02:54:44;25.70;;;4.88;;
22439;SDS011;11387;51.612;7.210;2023-01-10T02:57:16;13.85;;;4.65;;
22439;SDS011;11387;51.612;7.210;2023-01-10T03:00:10;19.77;;;5.20;;
22439;SDS011;11387;51.612;7.210;2023-01-10T03:03:07;23.30;;;4.82;;
22439;SDS011;11387;51.612;7.210;2023-01-10T03:05:49;11.43;;;4.47;;
22439;SDS011;11387;51.612;7.210;2023-01-10T03:08:29;17.33;;;4.25;;
22439;SDS011;11387;51.612;7.210;2023-01-10T03:11:03;22.67;;;5.38;;
22439;SDS011;11387;51.612;7.210;2023-01-10T03:13:34;19.63;;;4.25;;
22439;SDS011;11387;51.612;7.210;2023-01-10T03:16:07;18.40;;;4.95;;
22439;SDS011;11387;51.612;7.210;2023-01-10T03:18:40;18.63;;;4.40;;
22439;SDS011;11387;51.612;7.210;2023-01-10T03:21:16;20.63;;;5.00;;
22439;SDS011;11387;51.612;7.210;2023-01-10T03:23:48;19.30;;;4.05;;
22439;SDS011;11387;51.612;7.210;2023-01-10T03:26:22;25.70;;;4.55;;
22439;SDS011;11387;51.612;7.210;2023-01-10T03:28:56;26.25;;;4.90;;
22439;SDS011;11387;51.612;7.210;2023-01-10T03:31:32;17.48;;;4.40;;
22439;SDS011;11387;51.612;7.210;2023-01-10T03:34:07;15.25;;;3.63;;
22439;SDS011;11387;51.612;7.210;2023-01-10T03:36:38;17.50;;;3.65;;
22439;SDS011;11387;51.612;7.210;2023-01-10T03:39:11;21.83;;;4.05;;
22439;SDS011;11387;51.612;7.210;2023-01-10T03:41:46;20.60;;;4.10;;
22439;SDS011;11387;51.612;7.210;2023-01-10T03:44:20;19.88;;;4.53;;
22439;SDS011;11387;51.612;7.210;2023-01-10T03:47:15;40.30;;;6.88;;
22439;SDS011;11387;51.612;7.210;2023-01-10T03:49:53;15.38;;;4.22;;
22439;SDS011;11387;51.612;7.210;2023-01-10T03:52:25;21.67;;;3.67;;
22439;SDS011;11387;51.612;7.210;2023-01-10T03:54:54;24.83;;;4.63;;
22439;SDS011;11387;51.612;7.210;2023-01-10T03:57:25;20.20;;;4.72;;
22439;SDS011;11387;51.612;7.210;2023-01-10T03:59:54;16.67;;;4.75;;
22439;SDS011;11387;51.612;7.210;2023-01-10T04:02:24;16.25;;;5.22;;
22439;SDS011;11387;51.612;7.210;2023-01-10T04:04:54;20.33;;;6.57;;
22439;SDS011;11387;51.612;7.210;2023-01-10T04:07:22;16.75;;;5.85;;
22439;SDS011;11387;51.612;7.210;2023-01-10T04:09:52;19.83;;;5.97;;
22439;SDS011;11387;51.612;7.210;2023-01-10T04:12:21;24.08;;;5.95;;
22439;SDS011;11387;51.612;7.210;2023-01-10T04:14:49;27.65;;;7.50;;
22439;SDS011;11387;51.612;7.210;2023-01-10T04:17:17;21.73;;;6.05;;
22439;SDS011;11387;51.612;7.210;2023-01-10T04:19:46;28.15;;;5.63;;
22439;SDS011;11387;51.612;7.210;2023-01-10T04:22:14;21.27;;;4.95;;
22439;SDS011;11387;51.612;7.210;2023-01-10T04:24:43;22.30;;;5.70;;
22439;SDS011;11387;51.612;7.210;2023-01-10T04:27:14;24.45;;;5.00;;
22439;SDS011;11387;51.612;7.210;2023-01-10T04:29:42;15.60;;;3.83;;
22439;SDS011;11387;51.612;7.210;2023-01-10T04:32:11;22.55;;;5.53;;
22439;SDS011;11387;51.612;7.210;2023-01-10T04:34:39;19.15;;;5.10;;
22439;SDS011;11387;51.612;7.210;2023-01-10T04:37:08;24.17;;;4.65;;
22439;SDS011;11387;51.612;7.210;2023-01-10T04:39:36;24.75;;;4.03;;
22439;SDS011;11387;51.612;7.210;2023-01-10T04:42:04;18.10;;;4.55;;
22439;SDS011;11387;51.612;7.210;2023-01-10T04:44:34;18.05;;;4.10;;
22439;SDS011;11387;51.612;7.210;2023-01-10T04:47:03;22.10;;;5.00;;
22439;SDS011;11387;51.612;7.210;2023-01-10T04:49:31;21.05;;;4.03;;
22439;SDS011;11387;51.612;7.210;2023-01-10T04:51:59;24.02;;;5.88;;
22439;SDS011;11387;51.612;7.210;2023-01-10T04:54:28;22.52;;;4.57;;
22439;SDS011;11387;51.612;7.210;2023-01-10T04:56:57;19.75;;;4.50;;
22439;SDS011;11387;51.612;7.210;2023-01-10T04:59:25;21.17;;;5.22;;
22439;SDS011;11387;51.612;7.210;2023-01-10T05:01:56;15.70;;;3.92;;
22439;SDS011;11387;51.612;7.210;2023-01-10T05:04:25;18.02;;;3.80;;
22439;SDS011;11387;51.612;7.210;2023-01-10T05:06:54;19.98;;;4.72;;
22439;SDS011;11387;51.612;7.210;2023-01-10T05:09:22;24.52;;;4.45;;
22439;SDS011;11387;51.612;7.210;2023-01-10T05:11:50;22.55;;;4.97;;
22439;SDS011;11387;51.612;7.210;2023-01-10T05:14:19;25.73;;;5.40;;
22439;SDS011;11387;51.612;7.210;2023-01-10T05:16:48;18.85;;;4.20;;
22439;SDS011;11387;51.612;7.210;2023-01-10T05:19:17;21.08;;;4.60;;
22439;SDS011;11387;51.612;7.210;2023-01-10T05:21:46;19.20;;;4.30;;
22439;SDS011;11387;51.612;7.210;2023-01-10T05:24:14;21.20;;;5.30;;
22439;SDS011;11387;51.612;7.210;2023-01-10T05:26:42;19.65;;;4.80;;
22439;SDS011;11387;51.612;7.210;2023-01-10T05:29:11;25.13;;;4.53;;
22439;SDS011;11387;51.612;7.210;2023-01-10T05:31:40;23.02;;;4.65;;
22439;SDS011;11387;51.612;7.210;2023-01-10T05:34:09;18.38;;;4.82;;
22439;SDS011;11387;51.612;7.210;2023-01-10T05:36:40;14.88;;;4.15;;
22439;SDS011;11387;51.612;7.210;2023-01-10T05:39:08;21.83;;;4.78;;
22439;SDS011;11387;51.612;7.210;2023-01-10T05:41:37;26.80;;;5.32;;
22439;SDS011;11387;51.612;7.210;2023-01-10T05:44:06;25.05;;;6.75;;
22439;SDS011;11387;51.612;7.210;2023-01-10T05:46:34;29.70;;;5.40;;
22439;SDS011;11387;51.612;7.210;2023-01-10T05:49:03;19.70;;;4.47;;
22439;SDS011;11387;51.612;7.210;2023-01-10T05:51:31;19.13;;;4.55;;
22439;SDS011;11387;51.612;7.210;2023-01-10T05:54:01;27.20;;;4.55;;
22439;SDS011;11387;51.612;7.210;2023-01-10T05:56:30;25.13;;;5.07;;
22439;SDS011;11387;51.612;7.210;2023-01-10T05:58:58;24.98;;;4.85;;
22439;SDS011;11387;51.612;7.210;2023-01-10T06:01:47;25.33;;;4.95;;
22439;SDS011;11387;51.612;7.210;2023-01-10T06:04:15;20.23;;;4.95;;
22439;SDS011;11387;51.612;7.210;2023-01-10T06:06:44;19.55;;;5.40;;
22439;SDS011;11387;51.612;7.210;2023-01-10T06:09:13;29.27;;;5.93;;
22439;SDS011;11387;51.612;7.210;2023-01-10T06:11:42;28.48;;;6.03;;
22439;SDS011;11387;51.612;7.210;2023-01-10T06:14:10;29.10;;;6.38;;
22439;SDS011;11387;51.612;7.210;2023-01-10T06:16:39;21.65;;;5.97;;
22439;SDS011;11387;51.612;7.210;2023-01-10T06:19:09;23.17;;;4.38;;
22439;SDS011;11387;51.612;7.210;2023-01-10T06:21:37;23.08;;;4.60;;
22439;SDS011;11387;51.612;7.210;2023-01-10T06:24:06;28.83;;;5.47;;
22439;SDS011;11387;51.612;7.210;2023-01-10T06:26:36;18.65;;;5.47;;
22439;SDS011;11387;51.612;7.210;2023-01-10T06:29:05;28.65;;;5.10;;
22439;SDS011;11387;51.612;7.210;2023-01-10T06:31:33;22.98;;;4.80;;
22439;SDS011;11387;51.612;7.210;2023-01-10T06:34:01;21.27;;;5.25;;
22439;SDS011;11387;51.612;7.210;2023-01-10T06:36:30;20.85;;;4.20;;
22439;SDS011;11387;51.612;7.210;2023-01-10T06:38:58;30.25;;;4.60;;
22439;SDS011;11387;51.612;7.210;2023-01-10T06:41:27;23.17;;;4.95;;
22439;SDS011;11387;51.612;7.210;2023-01-10T06:43:57;24.95;;;4.75;;
22439;SDS011;11387;51.612;7.210;2023-01-10T06:46:25;21.38;;;6.40;;
22439;SDS011;11387;51.612;7.210;2023-01-10T06:48:54;31.63;;;6.38;;
22439;SDS011;11387;51.612;7.210;2023-01-10T06:51:22;25.50;;;5.90;;
22439;SDS011;11387;51.612;7.210;2023-01-10T06:53:51;21.77;;;4.47;;
22439;SDS011;11387;51.612;7.210;2023-01-10T06:56:19;23.85;;;5.72;;
22439;SDS011;11387;51.612;7.210;2023-01-10T06:58:48;20.50;;;4.43;;
22439;SDS011;11387;51.612;7.210;2023-01-10T07:01:18;35.00;;;4.97;;
22439;SDS011;11387;51.612;7.210;2023-01-10T07:03:48;22.40;;;4.40;;
22439;SDS011;11387;51.612;7.210;2023-01-10T07:06:17;28.67;;;5.75;;
22439;SDS011;11387;51.612;7.210;2023-01-10T07:08:45;25.52;;;5.78;;
22439;SDS011;11387;51.612;7.210;2023-01-10T07:11:14;29.10;;;6.00;;
22439;SDS011;11387;51.612;7.210;2023-01-10T07:13:43;25.98;;;3.75;;
22439;SDS011;11387;51.612;7.210;2023-01-10T07:16:12;24.42;;;4.60;;
22439;SDS011;11387;51.612;7.210;2023-01-10T07:18:43;24.50;;;4.43;;
22439;SDS011;11387;51.612;7.210;2023-01-10T07:21:13;25.27;;;4.85;;
22439;SDS011;11387;51.612;7.210;2023-01-10T07:23:46;19.52;;;4.60;;
22439;SDS011;11387;51.612;7.210;2023-01-10T07:26:15;24.10;;;4.97;;
22439;SDS011;11387;51.612;7.210;2023-01-10T07:28:46;20.75;;;4.55;;
22439;SDS011;11387;51.612;7.210;2023-01-10T07:31:17;33.42;;;5.85;;
22439;SDS011;11387;51.612;7.210;2023-01-10T07:33:49;21.45;;;4.70;;
22439;SDS011;11387;51.612;7.210;2023-01-10T07:36:18;23.10;;;5.00;;
22439;SDS011;11387;51.612;7.210;2023-01-10T07:38:46;28.10;;;5.75;;
22439;SDS011;11387;51.612;7.210;2023-01-10T07:41:15;32.38;;;6.03;;
22439;SDS011;11387;51.612;7.210;2023-01-10T07:43:43;31.20;;;6.78;;
22439;SDS011;11387;51.612;7.210;2023-01-10T07:46:11;31.15;;;6.40;;
22439;SDS011;11387;51.612;7.210;2023-01-10T07:48:40;31.52;;;7.82;;
22439;SDS011;11387;51.612;7.210;2023-01-10T07:51:10;26.73;;;7.28;;
22439;SDS011;11387;51.612;7.210;2023-01-10T07:53:38;29.50;;;7.88;;
22439;SDS011;11387;51.612;7.210;2023-01-10T07:56:07;34.58;;;9.80;;
22439;SDS011;11387;51.612;7.210;2023-01-10T07:58:35;34.55;;;9.30;;
22439;SDS011;11387;51.612;7.210;2023-01-10T08:01:04;34.80;;;8.98;;
22439;SDS011;11387;51.612;7.210;2023-01-10T08:03:33;41.40;;;11.27;;
22439;SDS011;11387;51.612;7.210;2023-01-10T08:06:03;42.30;;;13.68;;
22439;SDS011;11387;51.612;7.210;2023-01-10T08:08:34;40.72;;;11.25;;
22439;SDS011;11387;51.612;7.210;2023-01-10T08:11:03;46.67;;;13.20;;
22439;SDS011;11387;51.612;7.210;2023-01-10T08:13:32;38.72;;;10.98;;
22439;SDS011;11387;51.612;7.210;2023-01-10T08:16:03;43.53;;;12.98;;
22439;SDS011;11387;51.612;7.210;2023-01-10T08:18:32;38.25;;;13.18;;
22439;SDS011;11387;51.612;7.210;2023-01-10T08:21:01;39.67;;;11.93;;
22439;SDS011;11387;51.612;7.210;2023-01-10T08:23:29;37.42;;;13.98;;
22439;SDS011;11387;51.612;7.210;2023-01-10T08:25:59;39.60;;;13.45;;
22439;SDS011;11387;51.612;7.210;2023-01-10T08:28:28;43.47;;;13.50;;
22439;SDS011;11387;51.612;7.210;2023-01-10T08:30:57;41.28;;;13.07;;
22439;SDS011;11387;51.612;7.210;2023-01-10T08:33:27;59.13;;;13.18;;
22439;SDS011;11387;51.612;7.210;2023-01-10T08:35:55;47.63;;;12.88;;
22439;SDS011;11387;51.612;7.210;2023-01-10T08:38:24;35.88;;;13.35;;
22439;SDS011;11387;51.612;7.210;2023-01-10T08:40:54;42.83;;;12.88;;
22439;SDS011;11387;51.612;7.210;2023-01-10T08:43:25;39.17;;;12.30;;
22439;SDS011;11387;51.612;7.210;2023-01-10T08:45:53;31.45;;;11.85;;
22439;SDS011;11387;51.612;7.210;2023-01-10T08:48:21;45.47;;;12.82;;
22439;SDS011;11387;51.612;7.210;2023-01-10T08:50:50;46.03;;;13.82;;
22439;SDS011;11387;51.612;7.210;2023-01-10T08:53:19;46.72;;;12.98;;
22439;SDS011;11387;51.612;7.210;2023-01-10T08:55:47;44.55;;;11.80;;
22439;SDS011;11387;51.612;7.210;2023-01-10T08:58:16;45.15;;;10.55;;
22439;SDS011;11387;51.612;7.210;2023-01-10T09:00:47;37.13;;;9.60;;
22439;SDS011;11387;51.612;7.210;2023-01-10T09:03:21;46.47;;;10.27;;
22439;SDS011;11387;51.612;7.210;2023-01-10T09:05:49;50.30;;;10.18;;
22439;SDS011;11387;51.612;7.210;2023-01-10T09:08:18;34.03;;;7.72;;
22439;SDS011;11387;51.612;7.210;2023-01-10T09:10:46;37.85;;;7.50;;
22439;SDS011;11387;51.612;7.210;2023-01-10T09:13:15;31.95;;;7.32;;
22439;SDS011;11387;51.612;7.210;2023-01-10T09:15:44;38.15;;;8.20;;
22439;SDS011;11387;51.612;7.210;2023-01-10T09:18:14;25.75;;;6.60;;
22439;SDS011;11387;51.612;7.210;2023-01-10T09:20:43;43.13;;;7.30;;
22439;SDS011;11387;51.612;7.210;2023-01-10T09:23:14;33.80;;;7.45;;
22439;SDS011;11387;51.612;7.210;2023-01-10T09:25:45;30.88;;;7.78;;
22439;SDS011;11387;51.612;7.210;2023-01-10T09:28:14;29.08;;;7.50;;
22439;SDS011;11387;51.612;7.210;2023-01-10T09:30:43;28.08;;;7.32;;
22439;SDS011;11387;51.612;7.210;2023-01-10T09:33:12;31.00;;;6.60;;
22439;SDS011;11387;51.612;7.210;2023-01-10T09:35:42;26.42;;;7.43;;
22439;SDS011;11387;51.612;7.210;2023-01-10T09:38:12;41.45;;;7.47;;
22439;SDS011;11387;51.612;7.210;2023-01-10T09:40:49;35.78;;;6.65;;
22439;SDS011;11387;51.612;7.210;2023-01-10T09:43:31;34.33;;;6.63;;
22439;SDS011;11387;51.612;7.210;2023-01-10T09:46:13;38.97;;;7.57;;
22439;SDS011;11387;51.612;7.210;2023-01-10T09:48:50;26.85;;;6.78;;
22439;SDS011;11387;51.612;7.210;2023-01-10T09:51:27;29.77;;;6.30;;
22439;SDS011;11387;51.612;7.210;2023-01-10T09:54:02;40.42;;;6.68;;
22439;SDS011;11387;51.612;7.210;2023-01-10T09:56:39;35.80;;;6.60;;
22439;SDS011;11387;51.612;7.210;2023-01-10T09:59:10;26.67;;;5.90;;
22439;SDS011;11387;51.612;7.210;2023-01-10T10:01:45;28.13;;;6.38;;
22439;SDS011;11387;51.612;7.210;2023-01-10T10:04:20;32.85;;;6.53;;
22439;SDS011;11387;51.612;7.210;2023-01-10T10:06:56;36.03;;;6.28;;
22439;SDS011;11387;51.612;7.210;2023-01-10T10:09:25;28.73;;;5.53;;
22439;SDS011;11387;51.612;7.210;2023-01-10T10:12:09;25.13;;;5.78;;
22439;SDS011;11387;51.612;7.210;2023-01-10T10:14:57;28.58;;;7.40;;
22439;SDS011;11387;51.612;7.210;2023-01-10T10:17:36;28.35;;;6.25;;
22439;SDS011;11387;51.612;7.210;2023-01-10T10:20:25;40.40;;;6.63;;
22439;SDS011;11387;51.612;7.210;2023-01-10T10:23:07;26.25;;;4.60;;
22439;SDS011;11387;51.612;7.210;2023-01-10T10:25:50;35.63;;;6.03;;
22439;SDS011;11387;51.612;7.210;2023-01-10T10:28:33;33.78;;;4.97;;
22439;SDS011;11387;51.612;7.210;2023-01-10T10:31:25;27.00;;;5.53;;
22439;SDS011;11387;51.612;7.210;2023-01-10T10:34:06;36.78;;;5.57;;
22439;SDS011;11387;51.612;7.210;2023-01-10T10:36:43;36.00;;;5.90;;
22439;SDS011;11387;51.612;7.210;2023-01-10T10:39:18;21.08;;;5.05;;
22439;SDS011;11387;51.612;7.210;2023-01-10T10:41:51;24.65;;;5.25;;
22439;SDS011;11387;51.612;7.210;2023-01-10T10:44:26;26.92;;;5.95;;
22439;SDS011;11387;51.612;7.210;2023-01-10T10:47:01;24.48;;;5.70;;
22439;SDS011;11387;51.612;7.210;2023-01-10T10:49:45;24.70;;;4.93;;
22439;SDS011;11387;51.612;7.210;2023-01-10T10:52:21;27.38;;;6.18;;
22439;SDS011;11387;51.612;7.210;2023-01-10T10:54:52;31.85;;;5.38;;
22439;SDS011;11387;51.612;7.210;2023-01-10T10:57:21;24.70;;;5.38;;
22439;SDS011;11387;51.612;7.210;2023-01-10T10:59:53;20.45;;;4.55;;
22439;SDS011;11387;51.612;7.210;2023-01-10T11:02:24;31.67;;;6.03;;
22439;SDS011;11387;51.612;7.210;2023-01-10T11:04:55;20.45;;;4.60;;
22439;SDS011;11387;51.612;7.210;2023-01-10T11:07:28;24.50;;;4.95;;
22439;SDS011;11387;51.612;7.210;2023-01-10T11:10:01;24.20;;;3.88;;
22439;SDS011;11387;51.612;7.210;2023-01-10T11:12:42;24.02;;;4.38;;
22439;SDS011;11387;51.612;7.210;2023-01-10T11:15:23;26.35;;;4.57;;
22439;SDS011;11387;51.612;7.210;2023-01-10T11:18:03;26.23;;;5.15;;
22439;SDS011;11387;51.612;7.210;2023-01-10T11:20:32;23.30;;;4.10;;
22439;SDS011;11387;51.612;7.210;2023-01-10T11:23:03;26.17;;;6.28;;
22439;SDS011;11387;51.612;7.210;2023-01-10T11:25:31;30.70;;;5.22;;
22439;SDS011;11387;51.612;7.210;2023-01-10T11:28:00;29.25;;;4.95;;
22439;SDS011;11387;51.612;7.210;2023-01-10T11:30:32;23.30;;;4.13;;
22439;SDS011;11387;51.612;7.210;2023-01-10T11:33:03;32.92;;;4.80;;
22439;SDS011;11387;51.612;7.210;2023-01-10T11:35:35;33.83;;;4.60;;
22439;SDS011;11387;51.612;7.210;2023-01-10T11:38:17;20.25;;;4.57;;
22439;SDS011;11387;51.612;7.210;2023-01-10T11:40:52;20.88;;;4.30;;
22439;SDS011;11387;51.612;7.210;2023-01-10T11:43:25;30.40;;;5.15;;
22439;SDS011;11387;51.612;7.210;2023-01-10T11:45:56;29.05;;;5.75;;
22439;SDS011;11387;51.612;7.210;2023-01-10T11:48:38;25.15;;;5.10;;
22439;SDS011;11387;51.612;7.210;2023-01-10T11:51:33;26.20;;;4.30;;
22439;SDS011;11387;51.612;7.210;2023-01-10T11:54:08;25.60;;;4.22;;
22439;SDS011;11387;51.612;7.210;2023-01-10T11:56:39;31.10;;;5.70;;
22439;SDS011;11387;51.612;7.210;2023-01-10T11:59:09;31.65;;;4.47;;
22439;SDS011;11387;51.612;7.210;2023-01-10T12:01:41;30.88;;;4.93;;
22439;SDS011;11387;51.612;7.210;2023-01-10T12:04:12;26.73;;;4.50;;
22439;SDS011;11387;51.612;7.210;2023-01-10T12:06:43;28.42;;;4.88;;
22439;SDS011;11387;51.612;7.210;2023-01-10T12:09:33;28.40;;;4.07;;
22439;SDS011;11387;51.612;7.210;2023-01-10T12:12:03;17.23;;;4.35;;
22439;SDS011;11387;51.612;7.210;2023-01-10T12:14:33;23.77;;;5.13;;
22439;SDS011;11387;51.612;7.210;2023-01-10T12:17:02;30.23;;;4.97;;
22439;SDS011;11387;51.612;7.210;2023-01-10T12:19:31;29.52;;;5.32;;
22439;SDS011;11387;51.612;7.210;2023-01-10T12:22:01;23.58;;;4.68;;
22439;SDS011;11387;51.612;7.210;2023-01-10T12:24:36;30.27;;;5.60;;
22439;SDS011;11387;51.612;7.210;2023-01-10T12:27:11;28.67;;;4.22;;
22439;SDS011;11387;51.612;7.210;2023-01-10T12:29:44;24.27;;;4.88;;
22439;SDS011;11387;51.612;7.210;2023-01-10T12:32:15;24.40;;;3.92;;
22439;SDS011;11387;51.612;7.210;2023-01-10T12:34:49;19.27;;;3.83;;
22439;SDS011;11387;51.612;7.210;2023-01-10T12:37:25;27.00;;;3.60;;
22439;SDS011;11387;51.612;7.210;2023-01-10T12:40:02;27.63;;;6.13;;
22439;SDS011;11387;51.612;7.210;2023-01-10T12:42:42;29.35;;;4.70;;
22439;SDS011;11387;51.612;7.210;2023-01-10T12:45:36;25.30;;;4.20;;
22439;SDS011;11387;51.612;7.210;2023-01-10T12:48:12;23.60;;;3.63;;
22439;SDS011;11387;51.612;7.210;2023-01-10T12:50:45;19.27;;;4.43;;
22439;SDS011;11387;51.612;7.210;2023-01-10T12:53:23;24.38;;;4.25;;
22439;SDS011;11387;51.612;7.210;2023-01-10T12:55:59;27.48;;;4.72;;
22439;SDS011;11387;51.612;7.210;2023-01-10T12:58:37;26.00;;;5.03;;
22439;SDS011;11387;51.612;7.210;2023-01-10T13:01:11;31.88;;;4.60;;
22439;SDS011;11387;51.612;7.210;2023-01-10T13:03:43;20.80;;;3.65;;
22439;SDS011;11387;51.612;7.210;2023-01-10T13:06:15;24.15;;;4.50;;
22439;SDS011;11387;51.612;7.210;2023-01-10T13:08:49;26.90;;;4.50;;
22439;SDS011;11387;51.612;7.210;2023-01-10T13:11:20;30.00;;;4.65;;
22439;SDS011;11387;51.612;7.210;2023-01-10T13:13:54;22.20;;;4.72;;
22439;SDS011;11387;51.612;7.210;2023-01-10T13:16:29;31.15;;;4.47;;
22439;SDS011;11387;51.612;7.210;2023-01-10T13:19:21;30.63;;;4.72;;
22439;SDS011;11387;51.612;7.210;2023-01-10T13:24:55;22.83;;;4.55;;
22439;SDS011;11387;51.612;7.210;2023-01-10T13:27:41;29.55;;;5.95;;
22439;SDS011;11387;51.612;7.210;2023-01-10T13:30:21;20.20;;;5.03;;
22439;SDS011;11387;51.612;7.210;2023-01-10T13:32:56;21.70;;;3.42;;
22439;SDS011;11387;51.612;7.210;2023-01-10T13:35:35;24.52;;;4.40;;
22439;SDS011;11387;51.612;7.210;2023-01-10T13:38:13;24.02;;;4.88;;
22439;SDS011;11387;51.612;7.210;2023-01-10T13:40:59;22.70;;;3.63;;
22439;SDS011;11387;51.612;7.210;2023-01-10T13:43:36;23.60;;;5.78;;
22439;SDS011;11387;51.612;7.210;2023-01-10T13:49:22;22.75;;;3.53;;
22439;SDS011;11387;51.612;7.210;2023-01-10T13:52:20;22.48;;;3.30;;
22439;SDS011;11387;51.612;7.210;2023-01-10T13:54:56;28.60;;;3.97;;
22439;SDS011;11387;51.612;7.210;2023-01-10T13:57:47;18.02;;;3.65;;
22439;SDS011;11387;51.612;7.210;2023-01-10T14:00:28;23.25;;;4.30;;
22439;SDS011;11387;51.612;7.210;2023-01-10T14:03:41;16.20;;;4.25;;
22439;SDS011;11387;51.612;7.210;2023-01-10T14:06:30;24.08;;;4.35;;
22439;SDS011;11387;51.612;7.210;2023-01-10T14:12:21;22.75;;;4.05;;
22439;SDS011;11387;51.612;7.210;2023-01-10T14:14:55;10.93;;;2.97;;
22439;SDS011;11387;51.612;7.210;2023-01-10T14:17:28;26.67;;;4.07;;
22439;SDS011;11387;51.612;7.210;2023-01-10T14:20:03;24.20;;;4.05;;
22439;SDS011;11387;51.612;7.210;2023-01-10T14:22:44;16.02;;;4.13;;
22439;SDS011;11387;51.612;7.210;2023-01-10T14:25:25;14.88;;;3.08;;
22439;SDS011;11387;51.612;7.210;2023-01-10T14:27:55;24.80;;;4.15;;
22439;SDS011;11387;51.612;7.210;2023-01-10T14:30:26;27.48;;;4.28;;
22439;SDS011;11387;51.612;7.210;2023-01-10T14:33:01;23.65;;;4.28;;
22439;SDS011;11387;51.612;7.210;2023-01-10T14:35:36;16.73;;;3.13;;
22439;SDS011;11387;51.612;7.210;2023-01-10T14:38:12;24.30;;;4.60;;
22439;SDS011;11387;51.612;7.210;2023-01-10T14:40:47;10.65;;;2.83;;
22439;SDS011;11387;51.612;7.210;2023-01-10T14:43:19;15.40;;;3.88;;
22439;SDS011;11387;51.612;7.210;2023-01-10T14:45:53;17.42;;;4.07;;
22439;SDS011;11387;51.612;7.210;2023-01-10T14:48:30;19.92;;;3.65;;
22439;SDS011;11387;51.612;7.210;2023-01-10T14:51:14;26.40;;;3.75;;
22439;SDS011;11387;51.612;7.210;2023-01-10T14:53:52;17.40;;;3.38;;
22439;SDS011;11387;51.612;7.210;2023-01-10T14:56:24;14.05;;;3.85;;
22439;SDS011;11387;51.612;7.210;2023-01-10T14:58:55;17.63;;;3.05;;
22439;SDS011;11387;51.612;7.210;2023-01-10T15:01:24;21.60;;;3.85;;
22439;SDS011;11387;51.612;7.210;2023-01-10T15:03:56;17.05;;;2.95;;
22439;SDS011;11387;51.612;7.210;2023-01-10T15:06:24;15.65;;;3.08;;
22439;SDS011;11387;51.612;7.210;2023-01-10T15:08:57;18.20;;;2.72;;
22439;SDS011;11387;51.612;7.210;2023-01-10T15:11:27;15.75;;;2.70;;
22439;SDS011;11387;51.612;7.210;2023-01-10T15:14:00;15.07;;;2.88;;
22439;SDS011;11387;51.612;7.210;2023-01-10T15:16:36;15.63;;;3.17;;
22439;SDS011;11387;51.612;7.210;2023-01-10T15:19:09;15.73;;;2.90;;
22439;SDS011;11387;51.612;7.210;2023-01-10T15:21:41;17.58;;;3.10;;
22439;SDS011;11387;51.612;7.210;2023-01-10T15:24:21;24.02;;;3.97;;